sensor_id;sensor_type;location;lat;lon;timestamp;P1;durP1;ratioP1;P2;durP2;ratioP2
53503;SDS011;39387;50.998;22.340;2023-04-25T00:01:22;9.88;;;6.72;;
53503;SDS011;39387;50.998;22.340;2023-04-25T00:03:50;8.60;;;6.55;;
53503;SDS011;39387;50.998;22.340;2023-04-25T00:06:17;9.52;;;6.47;;
53503;SDS011;39387;50.998;22.340;2023-04-25T00:08:44;10.68;;;7.20;;
53503;SDS011;39387;50.998;22.340;2023-04-25T00:11:12;11.35;;;7.72;;
53503;SDS011;39387;50.998;22.340;2023-04-25T00:13:39;12.40;;;8.02;;
53503;SDS011;39387;50.998;22.340;2023-04-25T00:16:08;11.48;;;7.10;;
53503;SDS011;39387;50.998;22.340;2023-04-25T00:18:36;12.35;;;7.50;;
53503;SDS011;39387;50.998;22.340;2023-04-25T00:21:03;11.93;;;7.70;;
53503;SDS011;39387;50.998;22.340;2023-04-25T00:23:31;10.32;;;6.95;;
53503;SDS011;39387;50.998;22.340;2023-04-25T00:26:00;11.32;;;7.40;;
53503;SDS011;39387;50.998;22.340;2023-04-25T00:28:28;11.32;;;7.32;;
53503;SDS011;39387;50.998;22.340;2023-04-25T00:30:55;10.77;;;7.35;;
53503;SDS011;39387;50.998;22.340;2023-04-25T00:33:27;10.30;;;7.00;;
53503;SDS011;39387;50.998;22.340;2023-04-25T00:35:54;10.95;;;7.25;;
53503;SDS011;39387;50.998;22.340;2023-04-25T00:38:22;11.65;;;8.13;;
53503;SDS011;39387;50.998;22.340;2023-04-25T00:40:49;12.40;;;8.23;;
53503;SDS011;39387;50.998;22.340;2023-04-25T00:43:16;9.50;;;7.07;;
53503;SDS011;39387;50.998;22.340;2023-04-25T00:45:43;8.35;;;6.38;;
53503;SDS011;39387;50.998;22.340;2023-04-25T00:48:11;9.45;;;7.07;;
53503;SDS011;39387;50.998;22.340;2023-04-25T00:50:41;8.32;;;6.35;;
53503;SDS011;39387;50.998;22.340;2023-04-25T00:53:10;8.75;;;6.00;;
53503;SDS011;39387;50.998;22.340;2023-04-25T00:55:37;11.65;;;7.15;;
53503;SDS011;39387;50.998;22.340;2023-04-25T00:58:05;9.80;;;6.63;;
53503;SDS011;39387;50.998;22.340;2023-04-25T01:00:32;9.80;;;7.28;;
53503;SDS011;39387;50.998;22.340;2023-04-25T01:03:00;10.75;;;7.07;;
53503;SDS011;39387;50.998;22.340;2023-04-25T01:05:29;13.30;;;7.78;;
53503;SDS011;39387;50.998;22.340;2023-04-25T01:07:58;10.57;;;7.75;;
53503;SDS011;39387;50.998;22.340;2023-04-25T01:10:25;10.73;;;7.15;;
53503;SDS011;39387;50.998;22.340;2023-04-25T01:12:52;10.07;;;6.72;;
53503;SDS011;39387;50.998;22.340;2023-04-25T01:15:20;11.32;;;7.28;;
53503;SDS011;39387;50.998;22.340;2023-04-25T01:17:47;10.00;;;7.00;;
53503;SDS011;39387;50.998;22.340;2023-04-25T01:20:14;9.02;;;6.30;;
53503;SDS011;39387;50.998;22.340;2023-04-25T01:22:44;9.38;;;6.82;;
53503;SDS011;39387;50.998;22.340;2023-04-25T01:25:11;9.15;;;6.50;;
53503;SDS011;39387;50.998;22.340;2023-04-25T01:27:38;11.77;;;7.43;;
53503;SDS011;39387;50.998;22.340;2023-04-25T01:30:06;10.50;;;7.13;;
53503;SDS011;39387;50.998;22.340;2023-04-25T01:32:34;9.02;;;6.40;;
53503;SDS011;39387;50.998;22.340;2023-04-25T01:35:04;9.53;;;6.97;;
53503;SDS011;39387;50.998;22.340;2023-04-25T01:37:35;10.25;;;7.25;;
53503;SDS011;39387;50.998;22.340;2023-04-25T01:40:04;10.15;;;6.88;;
53503;SDS011;39387;50.998;22.340;2023-04-25T01:42:33;10.63;;;7.22;;
53503;SDS011;39387;50.998;22.340;2023-04-25T01:45:01;11.57;;;7.55;;
53503;SDS011;39387;50.998;22.340;2023-04-25T01:47:28;12.10;;;7.30;;
53503;SDS011;39387;50.998;22.340;2023-04-25T01:49:56;11.32;;;7.18;;
53503;SDS011;39387;50.998;22.340;2023-04-25T01:52:23;11.65;;;7.90;;
53503;SDS011;39387;50.998;22.340;2023-04-25T01:54:50;12.35;;;7.53;;
53503;SDS011;39387;50.998;22.340;2023-04-25T01:57:19;11.52;;;7.28;;
53503;SDS011;39387;50.998;22.340;2023-04-25T01:59:46;10.07;;;7.32;;
53503;SDS011;39387;50.998;22.340;2023-04-25T02:02:14;9.82;;;6.85;;
53503;SDS011;39387;50.998;22.340;2023-04-25T02:04:41;12.90;;;7.75;;
53503;SDS011;39387;50.998;22.340;2023-04-25T02:07:09;11.48;;;6.93;;
53503;SDS011;39387;50.998;22.340;2023-04-25T02:09:36;12.45;;;8.27;;
53503;SDS011;39387;50.998;22.340;2023-04-25T02:12:03;11.30;;;7.63;;
53503;SDS011;39387;50.998;22.340;2023-04-25T02:14:32;11.43;;;7.32;;
53503;SDS011;39387;50.998;22.340;2023-04-25T02:16:59;11.88;;;8.35;;
53503;SDS011;39387;50.998;22.340;2023-04-25T02:19:26;13.57;;;8.10;;
53503;SDS011;39387;50.998;22.340;2023-04-25T02:21:54;11.00;;;7.28;;
53503;SDS011;39387;50.998;22.340;2023-04-25T02:24:22;12.77;;;7.65;;
53503;SDS011;39387;50.998;22.340;2023-04-25T02:26:50;11.95;;;7.70;;
53503;SDS011;39387;50.998;22.340;2023-04-25T02:29:18;12.38;;;8.40;;
53503;SDS011;39387;50.998;22.340;2023-04-25T02:31:46;12.30;;;8.02;;
53503;SDS011;39387;50.998;22.340;2023-04-25T02:34:14;10.98;;;7.82;;
53503;SDS011;39387;50.998;22.340;2023-04-25T02:36:41;13.25;;;7.95;;
53503;SDS011;39387;50.998;22.340;2023-04-25T02:39:08;10.23;;;7.25;;
53503;SDS011;39387;50.998;22.340;2023-04-25T02:41:36;10.90;;;7.88;;
53503;SDS011;39387;50.998;22.340;2023-04-25T02:44:03;12.13;;;7.97;;
53503;SDS011;39387;50.998;22.340;2023-04-25T02:46:30;14.10;;;9.10;;
53503;SDS011;39387;50.998;22.340;2023-04-25T02:48:59;12.57;;;8.38;;
53503;SDS011;39387;50.998;22.340;2023-04-25T02:51:26;13.30;;;8.98;;
53503;SDS011;39387;50.998;22.340;2023-04-25T02:53:53;13.38;;;8.68;;
53503;SDS011;39387;50.998;22.340;2023-04-25T02:56:20;13.68;;;8.98;;
53503;SDS011;39387;50.998;22.340;2023-04-25T02:58:47;14.55;;;8.60;;
53503;SDS011;39387;50.998;22.340;2023-04-25T03:01:15;13.43;;;7.80;;
53503;SDS011;39387;50.998;22.340;2023-04-25T03:03:42;13.13;;;8.57;;
53503;SDS011;39387;50.998;22.340;2023-04-25T03:06:11;12.45;;;8.07;;
53503;SDS011;39387;50.998;22.340;2023-04-25T03:08:38;15.73;;;8.88;;
53503;SDS011;39387;50.998;22.340;2023-04-25T03:11:05;12.63;;;8.07;;
53503;SDS011;39387;50.998;22.340;2023-04-25T03:13:32;15.15;;;8.43;;
53503;SDS011;39387;50.998;22.340;2023-04-25T03:16:00;12.40;;;7.85;;
53503;SDS011;39387;50.998;22.340;2023-04-25T03:18:27;12.02;;;7.68;;
53503;SDS011;39387;50.998;22.340;2023-04-25T03:20:54;12.32;;;7.90;;
53503;SDS011;39387;50.998;22.340;2023-04-25T03:23:23;11.82;;;7.80;;
53503;SDS011;39387;50.998;22.340;2023-04-25T03:25:51;12.13;;;8.25;;
53503;SDS011;39387;50.998;22.340;2023-04-25T03:28:18;11.75;;;7.90;;
53503;SDS011;39387;50.998;22.340;2023-04-25T03:30:46;13.85;;;8.55;;
53503;SDS011;39387;50.998;22.340;2023-04-25T03:33:13;10.90;;;7.68;;
53503;SDS011;39387;50.998;22.340;2023-04-25T03:35:41;11.27;;;7.18;;
53503;SDS011;39387;50.998;22.340;2023-04-25T03:38:08;16.05;;;9.50;;
53503;SDS011;39387;50.998;22.340;2023-04-25T03:40:37;13.35;;;8.45;;
53503;SDS011;39387;50.998;22.340;2023-04-25T03:43:04;10.98;;;7.55;;
53503;SDS011;39387;50.998;22.340;2023-04-25T03:45:31;11.90;;;8.02;;
53503;SDS011;39387;50.998;22.340;2023-04-25T03:47:58;13.65;;;7.85;;
53503;SDS011;39387;50.998;22.340;2023-04-25T03:50:26;12.15;;;8.65;;
53503;SDS011;39387;50.998;22.340;2023-04-25T03:52:53;11.85;;;7.95;;
53503;SDS011;39387;50.998;22.340;2023-04-25T03:55:21;12.20;;;7.75;;
53503;SDS011;39387;50.998;22.340;2023-04-25T03:57:49;13.85;;;8.48;;
53503;SDS011;39387;50.998;22.340;2023-04-25T04:00:16;12.68;;;8.80;;
53503;SDS011;39387;50.998;22.340;2023-04-25T04:02:44;12.52;;;8.00;;
53503;SDS011;39387;50.998;22.340;2023-04-25T04:05:11;13.00;;;7.88;;
53503;SDS011;39387;50.998;22.340;2023-04-25T04:07:38;10.75;;;8.02;;
53503;SDS011;39387;50.998;22.340;2023-04-25T04:10:08;11.93;;;8.02;;
53503;SDS011;39387;50.998;22.340;2023-04-25T04:12:36;10.57;;;7.45;;
53503;SDS011;39387;50.998;22.340;2023-04-25T04:15:05;10.98;;;7.13;;
53503;SDS011;39387;50.998;22.340;2023-04-25T04:17:33;11.43;;;7.80;;
53503;SDS011;39387;50.998;22.340;2023-04-25T04:20:01;12.00;;;6.88;;
53503;SDS011;39387;50.998;22.340;2023-04-25T04:22:30;13.98;;;9.02;;
53503;SDS011;39387;50.998;22.340;2023-04-25T04:24:57;10.07;;;7.13;;
53503;SDS011;39387;50.998;22.340;2023-04-25T04:27:24;13.50;;;8.93;;
53503;SDS011;39387;50.998;22.340;2023-04-25T04:29:51;11.32;;;7.70;;
53503;SDS011;39387;50.998;22.340;2023-04-25T04:32:20;11.68;;;7.65;;
53503;SDS011;39387;50.998;22.340;2023-04-25T04:34:48;10.52;;;7.50;;
53503;SDS011;39387;50.998;22.340;2023-04-25T04:37:16;11.98;;;7.70;;
53503;SDS011;39387;50.998;22.340;2023-04-25T04:39:43;9.73;;;7.15;;
53503;SDS011;39387;50.998;22.340;2023-04-25T04:42:12;10.70;;;7.47;;
53503;SDS011;39387;50.998;22.340;2023-04-25T04:44:41;9.52;;;7.03;;
53503;SDS011;39387;50.998;22.340;2023-04-25T04:47:10;9.15;;;7.03;;
53503;SDS011;39387;50.998;22.340;2023-04-25T04:49:39;10.20;;;7.13;;
53503;SDS011;39387;50.998;22.340;2023-04-25T04:52:07;9.15;;;6.75;;
53503;SDS011;39387;50.998;22.340;2023-04-25T04:54:34;9.48;;;7.20;;
53503;SDS011;39387;50.998;22.340;2023-04-25T04:57:02;11.23;;;7.30;;
53503;SDS011;39387;50.998;22.340;2023-04-25T04:59:29;12.15;;;7.43;;
53503;SDS011;39387;50.998;22.340;2023-04-25T05:01:57;10.68;;;7.53;;
53503;SDS011;39387;50.998;22.340;2023-04-25T05:04:24;9.13;;;6.60;;
53503;SDS011;39387;50.998;22.340;2023-04-25T05:06:53;8.75;;;6.82;;
53503;SDS011;39387;50.998;22.340;2023-04-25T05:09:20;8.50;;;5.97;;
53503;SDS011;39387;50.998;22.340;2023-04-25T05:14:18;7.78;;;5.75;;
53503;SDS011;39387;50.998;22.340;2023-04-25T05:16:46;9.90;;;6.07;;
53503;SDS011;39387;50.998;22.340;2023-04-25T05:19:13;8.30;;;5.75;;
53503;SDS011;39387;50.998;22.340;2023-04-25T05:21:40;7.60;;;6.00;;
53503;SDS011;39387;50.998;22.340;2023-04-25T05:24:09;6.78;;;5.47;;
53503;SDS011;39387;50.998;22.340;2023-04-25T05:26:37;10.05;;;6.50;;
53503;SDS011;39387;50.998;22.340;2023-04-25T05:29:05;9.30;;;6.13;;
53503;SDS011;39387;50.998;22.340;2023-04-25T05:31:32;9.70;;;5.95;;
53503;SDS011;39387;50.998;22.340;2023-04-25T05:34:00;9.20;;;5.57;;
53503;SDS011;39387;50.998;22.340;2023-04-25T05:36:28;8.23;;;5.90;;
53503;SDS011;39387;50.998;22.340;2023-04-25T05:38:56;8.15;;;5.20;;
53503;SDS011;39387;50.998;22.340;2023-04-25T05:41:25;7.85;;;5.78;;
53503;SDS011;39387;50.998;22.340;2023-04-25T05:43:52;7.38;;;4.95;;
53503;SDS011;39387;50.998;22.340;2023-04-25T05:46:20;8.50;;;5.60;;
53503;SDS011;39387;50.998;22.340;2023-04-25T05:48:47;8.68;;;6.40;;
53503;SDS011;39387;50.998;22.340;2023-04-25T05:51:14;8.43;;;6.45;;
53503;SDS011;39387;50.998;22.340;2023-04-25T05:53:43;10.05;;;7.53;;
53503;SDS011;39387;50.998;22.340;2023-04-25T05:56:11;9.95;;;8.05;;
53503;SDS011;39387;50.998;22.340;2023-04-25T05:58:40;9.18;;;6.95;;
53503;SDS011;39387;50.998;22.340;2023-04-25T06:01:07;9.32;;;7.20;;
53503;SDS011;39387;50.998;22.340;2023-04-25T06:03:35;9.55;;;7.07;;
53503;SDS011;39387;50.998;22.340;2023-04-25T06:06:03;9.30;;;6.88;;
53503;SDS011;39387;50.998;22.340;2023-04-25T06:08:31;9.88;;;7.20;;
53503;SDS011;39387;50.998;22.340;2023-04-25T06:10:58;9.98;;;6.88;;
53503;SDS011;39387;50.998;22.340;2023-04-25T06:13:26;10.68;;;8.10;;
53503;SDS011;39387;50.998;22.340;2023-04-25T06:15:55;11.68;;;7.97;;
53503;SDS011;39387;50.998;22.340;2023-04-25T06:18:22;13.80;;;8.32;;
53503;SDS011;39387;50.998;22.340;2023-04-25T06:20:49;9.98;;;7.50;;
53503;SDS011;39387;50.998;22.340;2023-04-25T06:23:17;9.60;;;6.53;;
53503;SDS011;39387;50.998;22.340;2023-04-25T06:25:45;10.63;;;6.95;;
53503;SDS011;39387;50.998;22.340;2023-04-25T06:28:12;9.32;;;6.82;;
53503;SDS011;39387;50.998;22.340;2023-04-25T06:30:39;12.48;;;8.18;;
53503;SDS011;39387;50.998;22.340;2023-04-25T06:33:08;16.75;;;10.73;;
53503;SDS011;39387;50.998;22.340;2023-04-25T06:35:35;12.60;;;8.68;;
53503;SDS011;39387;50.998;22.340;2023-04-25T06:38:03;13.50;;;8.60;;
53503;SDS011;39387;50.998;22.340;2023-04-25T06:40:30;14.90;;;8.27;;
53503;SDS011;39387;50.998;22.340;2023-04-25T06:42:57;9.70;;;7.50;;
53503;SDS011;39387;50.998;22.340;2023-04-25T06:45:25;9.75;;;6.60;;
53503;SDS011;39387;50.998;22.340;2023-04-25T06:47:52;9.80;;;7.05;;
53503;SDS011;39387;50.998;22.340;2023-04-25T06:50:21;9.80;;;6.95;;
53503;SDS011;39387;50.998;22.340;2023-04-25T06:52:48;9.02;;;6.50;;
53503;SDS011;39387;50.998;22.340;2023-04-25T06:55:15;8.57;;;5.90;;
53503;SDS011;39387;50.998;22.340;2023-04-25T06:57:43;7.72;;;5.65;;
53503;SDS011;39387;50.998;22.340;2023-04-25T07:00:10;7.75;;;5.68;;
53503;SDS011;39387;50.998;22.340;2023-04-25T07:02:38;6.90;;;5.00;;
53503;SDS011;39387;50.998;22.340;2023-04-25T07:05:08;7.75;;;5.22;;
53503;SDS011;39387;50.998;22.340;2023-04-25T07:07:37;7.75;;;5.72;;
53503;SDS011;39387;50.998;22.340;2023-04-25T07:10:04;7.97;;;5.18;;
53503;SDS011;39387;50.998;22.340;2023-04-25T07:12:32;7.65;;;5.15;;
53503;SDS011;39387;50.998;22.340;2023-04-25T07:15:00;10.15;;;5.35;;
53503;SDS011;39387;50.998;22.340;2023-04-25T07:17:31;6.63;;;5.00;;
53503;SDS011;39387;50.998;22.340;2023-04-25T07:20:00;9.38;;;5.40;;
53503;SDS011;39387;50.998;22.340;2023-04-25T07:22:29;7.53;;;5.38;;
53503;SDS011;39387;50.998;22.340;2023-04-25T07:24:58;6.13;;;4.43;;
53503;SDS011;39387;50.998;22.340;2023-04-25T07:27:25;7.03;;;5.18;;
53503;SDS011;39387;50.998;22.340;2023-04-25T07:29:53;5.47;;;4.10;;
53503;SDS011;39387;50.998;22.340;2023-04-25T07:32:20;5.13;;;4.00;;
53503;SDS011;39387;50.998;22.340;2023-04-25T07:34:48;5.43;;;4.28;;
53503;SDS011;39387;50.998;22.340;2023-04-25T07:37:16;6.00;;;4.30;;
53503;SDS011;39387;50.998;22.340;2023-04-25T07:39:44;6.13;;;4.32;;
53503;SDS011;39387;50.998;22.340;2023-04-25T07:42:14;4.63;;;3.95;;
53503;SDS011;39387;50.998;22.340;2023-04-25T07:44:41;4.50;;;3.42;;
53503;SDS011;39387;50.998;22.340;2023-04-25T07:47:09;5.97;;;4.07;;
53503;SDS011;39387;50.998;22.340;2023-04-25T07:49:40;5.70;;;4.38;;
53503;SDS011;39387;50.998;22.340;2023-04-25T07:52:07;5.55;;;3.90;;
53503;SDS011;39387;50.998;22.340;2023-04-25T07:54:35;4.75;;;3.92;;
53503;SDS011;39387;50.998;22.340;2023-04-25T07:57:05;6.13;;;4.13;;
53503;SDS011;39387;50.998;22.340;2023-04-25T07:59:34;5.20;;;4.03;;
53503;SDS011;39387;50.998;22.340;2023-04-25T08:02:02;5.07;;;3.90;;
53503;SDS011;39387;50.998;22.340;2023-04-25T08:04:30;5.32;;;4.03;;
53503;SDS011;39387;50.998;22.340;2023-04-25T08:06:57;6.70;;;3.90;;
53503;SDS011;39387;50.998;22.340;2023-04-25T08:09:25;4.72;;;3.75;;
53503;SDS011;39387;50.998;22.340;2023-04-25T08:11:53;5.75;;;3.55;;
53503;SDS011;39387;50.998;22.340;2023-04-25T08:14:21;4.82;;;3.53;;
53503;SDS011;39387;50.998;22.340;2023-04-25T08:16:50;4.20;;;3.25;;
53503;SDS011;39387;50.998;22.340;2023-04-25T08:19:18;5.43;;;3.30;;
53503;SDS011;39387;50.998;22.340;2023-04-25T08:21:45;4.97;;;3.35;;
53503;SDS011;39387;50.998;22.340;2023-04-25T08:24:13;5.72;;;3.45;;
53503;SDS011;39387;50.998;22.340;2023-04-25T08:26:41;4.93;;;3.33;;
53503;SDS011;39387;50.998;22.340;2023-04-25T08:29:09;5.90;;;3.75;;
53503;SDS011;39387;50.998;22.340;2023-04-25T08:31:36;6.45;;;3.97;;
53503;SDS011;39387;50.998;22.340;2023-04-25T08:34:05;5.53;;;4.10;;
53503;SDS011;39387;50.998;22.340;2023-04-25T08:36:32;6.30;;;4.22;;
53503;SDS011;39387;50.998;22.340;2023-04-25T08:39:00;8.43;;;5.35;;
53503;SDS011;39387;50.998;22.340;2023-04-25T08:41:28;5.40;;;3.90;;
53503;SDS011;39387;50.998;22.340;2023-04-25T08:43:55;7.43;;;4.30;;
53503;SDS011;39387;50.998;22.340;2023-04-25T08:46:25;6.35;;;4.10;;
53503;SDS011;39387;50.998;22.340;2023-04-25T08:48:53;6.72;;;4.03;;
53503;SDS011;39387;50.998;22.340;2023-04-25T08:51:29;7.60;;;4.18;;
53503;SDS011;39387;50.998;22.340;2023-04-25T08:54:01;6.68;;;4.80;;
53503;SDS011;39387;50.998;22.340;2023-04-25T08:56:34;6.43;;;4.50;;
53503;SDS011;39387;50.998;22.340;2023-04-25T08:59:02;5.72;;;4.22;;
53503;SDS011;39387;50.998;22.340;2023-04-25T09:01:29;8.27;;;4.45;;
53503;SDS011;39387;50.998;22.340;2023-04-25T09:03:57;6.07;;;4.28;;
53503;SDS011;39387;50.998;22.340;2023-04-25T09:06:24;5.20;;;3.83;;
53503;SDS011;39387;50.998;22.340;2023-04-25T09:08:54;4.65;;;3.60;;
53503;SDS011;39387;50.998;22.340;2023-04-25T09:11:28;6.13;;;3.80;;
53503;SDS011;39387;50.998;22.340;2023-04-25T09:14:11;4.97;;;3.72;;
53503;SDS011;39387;50.998;22.340;2023-04-25T09:19:27;6.88;;;3.72;;
53503;SDS011;39387;50.998;22.340;2023-04-25T09:21:56;5.97;;;3.72;;
53503;SDS011;39387;50.998;22.340;2023-04-25T09:24:36;7.30;;;3.90;;
53503;SDS011;39387;50.998;22.340;2023-04-25T09:27:04;5.38;;;3.83;;
53503;SDS011;39387;50.998;22.340;2023-04-25T09:29:33;5.28;;;3.53;;
53503;SDS011;39387;50.998;22.340;2023-04-25T09:34:48;4.72;;;3.50;;
53503;SDS011;39387;50.998;22.340;2023-04-25T09:37:17;5.20;;;3.75;;
53503;SDS011;39387;50.998;22.340;2023-04-25T09:39:48;10.13;;;4.00;;
53503;SDS011;39387;50.998;22.340;2023-04-25T09:42:15;6.70;;;4.50;;
53503;SDS011;39387;50.998;22.340;2023-04-25T09:44:44;4.97;;;4.10;;
53503;SDS011;39387;50.998;22.340;2023-04-25T09:47:12;5.47;;;3.63;;
53503;SDS011;39387;50.998;22.340;2023-04-25T09:49:41;5.70;;;3.80;;
53503;SDS011;39387;50.998;22.340;2023-04-25T09:52:10;6.60;;;4.45;;
53503;SDS011;39387;50.998;22.340;2023-04-25T09:54:41;7.40;;;4.43;;
53503;SDS011;39387;50.998;22.340;2023-04-25T09:57:11;6.53;;;4.38;;
53503;SDS011;39387;50.998;22.340;2023-04-25T09:59:43;8.73;;;4.82;;
53503;SDS011;39387;50.998;22.340;2023-04-25T10:04:39;8.82;;;5.13;;
53503;SDS011;39387;50.998;22.340;2023-04-25T10:07:08;8.20;;;5.40;;
53503;SDS011;39387;50.998;22.340;2023-04-25T10:09:37;7.28;;;5.15;;
53503;SDS011;39387;50.998;22.340;2023-04-25T10:12:06;7.85;;;3.67;;
53503;SDS011;39387;50.998;22.340;2023-04-25T10:17:24;4.57;;;3.50;;
53503;SDS011;39387;50.998;22.340;2023-04-25T10:19:54;7.32;;;5.18;;
53503;SDS011;39387;50.998;22.340;2023-04-25T10:22:23;7.63;;;5.20;;
53503;SDS011;39387;50.998;22.340;2023-04-25T10:24:56;5.95;;;4.43;;
53503;SDS011;39387;50.998;22.340;2023-04-25T10:27:23;8.80;;;5.05;;
53503;SDS011;39387;50.998;22.340;2023-04-25T10:30:01;6.38;;;4.80;;
53503;SDS011;39387;50.998;22.340;2023-04-25T10:32:31;5.22;;;4.45;;
53503;SDS011;39387;50.998;22.340;2023-04-25T10:35:09;4.97;;;4.32;;
53503;SDS011;39387;50.998;22.340;2023-04-25T10:37:38;4.70;;;4.20;;
53503;SDS011;39387;50.998;22.340;2023-04-25T10:40:08;5.88;;;4.88;;
53503;SDS011;39387;50.998;22.340;2023-04-25T10:42:36;5.75;;;4.60;;
53503;SDS011;39387;50.998;22.340;2023-04-25T10:45:06;5.70;;;4.05;;
53503;SDS011;39387;50.998;22.340;2023-04-25T10:47:34;7.05;;;4.47;;
53503;SDS011;39387;50.998;22.340;2023-04-25T10:50:04;22.73;;;5.30;;
53503;SDS011;39387;50.998;22.340;2023-04-25T10:52:32;7.28;;;5.65;;
53503;SDS011;39387;50.998;22.340;2023-04-25T10:55:04;6.65;;;5.10;;
53503;SDS011;39387;50.998;22.340;2023-04-25T10:57:35;9.40;;;5.25;;
53503;SDS011;39387;50.998;22.340;2023-04-25T11:00:13;6.35;;;5.13;;
53503;SDS011;39387;50.998;22.340;2023-04-25T11:02:41;6.68;;;5.18;;
53503;SDS011;39387;50.998;22.340;2023-04-25T11:05:11;6.57;;;5.38;;
53503;SDS011;39387;50.998;22.340;2023-04-25T11:07:49;5.78;;;4.75;;
53503;SDS011;39387;50.998;22.340;2023-04-25T11:10:17;6.60;;;5.00;;
53503;SDS011;39387;50.998;22.340;2023-04-25T11:12:45;6.45;;;5.38;;
53503;SDS011;39387;50.998;22.340;2023-04-25T11:15:14;6.40;;;5.10;;
53503;SDS011;39387;50.998;22.340;2023-04-25T11:17:42;7.85;;;6.13;;
53503;SDS011;39387;50.998;22.340;2023-04-25T11:20:12;6.78;;;5.18;;
53503;SDS011;39387;50.998;22.340;2023-04-25T11:22:41;6.20;;;4.60;;
53503;SDS011;39387;50.998;22.340;2023-04-25T11:25:10;6.28;;;4.82;;
53503;SDS011;39387;50.998;22.340;2023-04-25T11:27:49;5.97;;;4.78;;
53503;SDS011;39387;50.998;22.340;2023-04-25T11:30:20;6.43;;;4.85;;
53503;SDS011;39387;50.998;22.340;2023-04-25T11:32:48;5.45;;;4.28;;
53503;SDS011;39387;50.998;22.340;2023-04-25T11:35:17;5.65;;;3.83;;
53503;SDS011;39387;50.998;22.340;2023-04-25T11:37:45;4.78;;;4.22;;
53503;SDS011;39387;50.998;22.340;2023-04-25T11:40:13;4.70;;;3.53;;
53503;SDS011;39387;50.998;22.340;2023-04-25T11:42:43;4.82;;;3.28;;
53503;SDS011;39387;50.998;22.340;2023-04-25T11:45:12;4.15;;;3.75;;
53503;SDS011;39387;50.998;22.340;2023-04-25T11:47:41;4.18;;;3.40;;
53503;SDS011;39387;50.998;22.340;2023-04-25T11:50:09;3.67;;;3.20;;
53503;SDS011;39387;50.998;22.340;2023-04-25T11:52:37;3.60;;;2.90;;
53503;SDS011;39387;50.998;22.340;2023-04-25T11:55:06;3.97;;;2.90;;
53503;SDS011;39387;50.998;22.340;2023-04-25T11:57:35;4.30;;;3.13;;
53503;SDS011;39387;50.998;22.340;2023-04-25T12:00:07;3.70;;;3.30;;
53503;SDS011;39387;50.998;22.340;2023-04-25T12:02:36;3.83;;;3.42;;
53503;SDS011;39387;50.998;22.340;2023-04-25T12:05:07;4.88;;;3.63;;
53503;SDS011;39387;50.998;22.340;2023-04-25T12:07:35;4.95;;;3.95;;
53503;SDS011;39387;50.998;22.340;2023-04-25T12:10:05;5.85;;;4.32;;
53503;SDS011;39387;50.998;22.340;2023-04-25T12:12:34;5.07;;;4.45;;
53503;SDS011;39387;50.998;22.340;2023-04-25T12:15:08;4.97;;;4.47;;
53503;SDS011;39387;50.998;22.340;2023-04-25T12:17:37;5.93;;;4.15;;
53503;SDS011;39387;50.998;22.340;2023-04-25T12:20:08;5.35;;;4.07;;
53503;SDS011;39387;50.998;22.340;2023-04-25T12:22:36;5.70;;;4.28;;
53503;SDS011;39387;50.998;22.340;2023-04-25T12:25:07;4.82;;;4.15;;
53503;SDS011;39387;50.998;22.340;2023-04-25T12:30:03;5.88;;;3.97;;
53503;SDS011;39387;50.998;22.340;2023-04-25T12:32:32;5.20;;;4.00;;
53503;SDS011;39387;50.998;22.340;2023-04-25T12:35:00;4.65;;;3.92;;
53503;SDS011;39387;50.998;22.340;2023-04-25T12:37:29;4.20;;;3.50;;
53503;SDS011;39387;50.998;22.340;2023-04-25T12:39:57;4.15;;;3.60;;
53503;SDS011;39387;50.998;22.340;2023-04-25T12:42:24;5.13;;;3.83;;
53503;SDS011;39387;50.998;22.340;2023-04-25T12:44:54;4.95;;;3.42;;
53503;SDS011;39387;50.998;22.340;2023-04-25T12:47:22;5.32;;;4.00;;
53503;SDS011;39387;50.998;22.340;2023-04-25T12:49:49;5.75;;;4.35;;
53503;SDS011;39387;50.998;22.340;2023-04-25T12:52:17;5.45;;;4.60;;
53503;SDS011;39387;50.998;22.340;2023-04-25T12:54:46;5.32;;;4.07;;
53503;SDS011;39387;50.998;22.340;2023-04-25T12:57:13;4.70;;;4.15;;
53503;SDS011;39387;50.998;22.340;2023-04-25T12:59:41;7.18;;;3.90;;
53503;SDS011;39387;50.998;22.340;2023-04-25T13:02:09;4.70;;;3.80;;
53503;SDS011;39387;50.998;22.340;2023-04-25T13:04:37;7.25;;;4.75;;
53503;SDS011;39387;50.998;22.340;2023-04-25T13:07:04;5.60;;;4.10;;
53503;SDS011;39387;50.998;22.340;2023-04-25T13:09:31;5.85;;;3.88;;
53503;SDS011;39387;50.998;22.340;2023-04-25T13:12:00;4.38;;;3.65;;
53503;SDS011;39387;50.998;22.340;2023-04-25T13:14:28;6.78;;;4.85;;
53503;SDS011;39387;50.998;22.340;2023-04-25T13:16:56;8.18;;;6.03;;
53503;SDS011;39387;50.998;22.340;2023-04-25T13:19:24;10.27;;;5.45;;
53503;SDS011;39387;50.998;22.340;2023-04-25T13:21:51;7.63;;;5.57;;
53503;SDS011;39387;50.998;22.340;2023-04-25T13:24:19;8.10;;;5.72;;
53503;SDS011;39387;50.998;22.340;2023-04-25T13:26:47;11.02;;;7.55;;
53503;SDS011;39387;50.998;22.340;2023-04-25T13:29:16;14.52;;;10.32;;
53503;SDS011;39387;50.998;22.340;2023-04-25T13:31:43;26.52;;;19.70;;
53503;SDS011;39387;50.998;22.340;2023-04-25T13:34:11;50.75;;;29.00;;
53503;SDS011;39387;50.998;22.340;2023-04-25T13:36:39;44.15;;;25.67;;
53503;SDS011;39387;50.998;22.340;2023-04-25T13:39:06;112.18;;;56.13;;
53503;SDS011;39387;50.998;22.340;2023-04-25T13:41:34;53.45;;;31.50;;
53503;SDS011;39387;50.998;22.340;2023-04-25T13:44:02;38.80;;;27.25;;
53503;SDS011;39387;50.998;22.340;2023-04-25T13:46:33;15.40;;;11.57;;
53503;SDS011;39387;50.998;22.340;2023-04-25T13:49:03;10.23;;;7.18;;
53503;SDS011;39387;50.998;22.340;2023-04-25T13:51:30;11.65;;;7.65;;
53503;SDS011;39387;50.998;22.340;2023-04-25T13:53:58;10.45;;;6.80;;
53503;SDS011;39387;50.998;22.340;2023-04-25T13:56:26;9.57;;;6.60;;
53503;SDS011;39387;50.998;22.340;2023-04-25T13:58:53;10.38;;;6.75;;
53503;SDS011;39387;50.998;22.340;2023-04-25T14:01:22;8.98;;;6.22;;
53503;SDS011;39387;50.998;22.340;2023-04-25T14:03:51;13.02;;;7.88;;
53503;SDS011;39387;50.998;22.340;2023-04-25T14:06:19;12.77;;;8.73;;
53503;SDS011;39387;50.998;22.340;2023-04-25T14:08:49;37.03;;;23.30;;
53503;SDS011;39387;50.998;22.340;2023-04-25T14:13:47;56.45;;;27.73;;
53503;SDS011;39387;50.998;22.340;2023-04-25T14:16:15;54.85;;;35.45;;
53503;SDS011;39387;50.998;22.340;2023-04-25T14:18:43;20.63;;;15.50;;
53503;SDS011;39387;50.998;22.340;2023-04-25T14:21:12;11.27;;;8.15;;
53503;SDS011;39387;50.998;22.340;2023-04-25T14:23:39;11.85;;;8.88;;
53503;SDS011;39387;50.998;22.340;2023-04-25T14:26:08;10.38;;;7.35;;
53503;SDS011;39387;50.998;22.340;2023-04-25T14:28:38;12.88;;;7.90;;
53503;SDS011;39387;50.998;22.340;2023-04-25T14:31:05;13.13;;;7.75;;
53503;SDS011;39387;50.998;22.340;2023-04-25T14:33:34;12.68;;;7.80;;
53503;SDS011;39387;50.998;22.340;2023-04-25T14:36:07;12.15;;;7.68;;
53503;SDS011;39387;50.998;22.340;2023-04-25T14:38:36;12.45;;;7.95;;
53503;SDS011;39387;50.998;22.340;2023-04-25T14:41:04;15.27;;;8.75;;
53503;SDS011;39387;50.998;22.340;2023-04-25T14:43:32;13.40;;;8.80;;
53503;SDS011;39387;50.998;22.340;2023-04-25T14:45:59;17.00;;;9.45;;
53503;SDS011;39387;50.998;22.340;2023-04-25T14:48:27;17.33;;;11.13;;
53503;SDS011;39387;50.998;22.340;2023-04-25T14:50:55;14.45;;;8.40;;
53503;SDS011;39387;50.998;22.340;2023-04-25T14:53:23;10.77;;;8.05;;